createdAt,value
2022-08-26T00:02:02.473Z,100505.59
2022-08-26T00:04:32.415Z,100512.09
2022-08-26T00:07:00.980Z,100513.38
2022-08-26T00:09:31.245Z,100517.03
2022-08-26T00:11:59.823Z,100500.84
2022-08-26T00:14:30.965Z,100511.78
2022-08-26T00:17:01.834Z,100503.28
2022-08-26T00:19:30.569Z,100507.94
2022-08-26T00:21:59.665Z,100511.88
2022-08-26T00:24:28.486Z,100506.16
2022-08-26T00:26:57.119Z,100503.84
2022-08-26T00:29:25.799Z,100499.63
2022-08-26T00:31:54.798Z,100504.59
2022-08-26T00:34:24.764Z,100496.75
2022-08-26T00:36:53.452Z,100502.38
2022-08-26T00:39:22.967Z,100493.69
2022-08-26T00:41:51.744Z,100498.06
2022-08-26T00:44:21.672Z,100498.72
2022-08-26T00:46:56.669Z,100498.72
2022-08-26T00:49:38.093Z,100504.34
2022-08-26T00:52:13.256Z,100500.63
2022-08-26T00:54:52.057Z,100502.75
2022-08-26T00:57:24.229Z,100507.97
2022-08-26T01:00:01.086Z,100505.16
2022-08-26T01:02:30.181Z,100514.41
2022-08-26T01:05:04.009Z,100500.56
2022-08-26T01:07:35.504Z,100509.03
2022-08-26T01:10:11.496Z,100508.16
2022-08-26T01:12:49.256Z,100509.47
2022-08-26T01:15:24.643Z,100502.16
2022-08-26T01:17:53.902Z,100510.16
2022-08-26T01:20:48.011Z,100507.19
2022-08-26T01:23:19.356Z,100502.94
2022-08-26T01:25:57.667Z,100509.22
2022-08-26T01:28:32.532Z,100505.63
2022-08-26T01:31:05.079Z,100508.75
2022-08-26T01:33:44.655Z,100503.72
2022-08-26T01:36:15.280Z,100500.81
2022-08-26T01:38:46.812Z,100508.34
2022-08-26T01:41:19.931Z,100502.34
2022-08-26T01:43:58.643Z,100508.50
2022-08-26T01:46:31.174Z,100498.47
2022-08-26T01:49:06.507Z,100513.13
2022-08-26T01:51:37.997Z,100510.91
2022-08-26T01:54:12.105Z,100508.25
2022-08-26T01:56:43.100Z,100510.50
2022-08-26T01:59:17.951Z,100511.50
2022-08-26T02:01:49.216Z,100504.09
2022-08-26T02:04:26.615Z,100512.09
2022-08-26T02:06:56.942Z,100510.03
2022-08-26T02:09:29.368Z,100516.31
2022-08-26T02:12:01.944Z,100505.81
2022-08-26T02:14:43.577Z,100512.13
2022-08-26T02:17:13.369Z,100509.78
2022-08-26T02:19:47.704Z,100517.03
2022-08-26T02:22:21.782Z,100506.00
2022-08-26T02:24:54.933Z,100514.16
2022-08-26T02:27:28.070Z,100512.75
2022-08-26T02:30:01.447Z,100513.13
2022-08-26T02:32:30.135Z,100518.63
2022-08-26T02:34:58.888Z,100517.75
2022-08-26T02:37:30.983Z,100511.63
2022-08-26T02:40:01.513Z,100514.41
2022-08-26T02:42:30.272Z,100515.56
2022-08-26T02:44:59.822Z,100506.03
2022-08-26T02:47:29.280Z,100513.47
2022-08-26T02:50:01.904Z,100512.78
2022-08-26T02:52:30.806Z,100507.59
2022-08-26T02:55:02.231Z,100506.91
2022-08-26T02:57:31.213Z,100513.06
2022-08-26T03:00:01.993Z,100510.53
2022-08-26T03:02:31.610Z,100507.75
2022-08-26T03:05:02.029Z,100504.53
2022-08-26T03:07:32.497Z,100498.69
2022-08-26T03:10:06.868Z,100499.91
2022-08-26T03:12:37.694Z,100497.72
2022-08-26T03:15:15.936Z,100500.50
2022-08-26T03:17:49.139Z,100499.09
2022-08-26T03:20:19.863Z,100497.13
2022-08-26T03:22:51.462Z,100500.19
2022-08-26T03:25:23.086Z,100492.81
2022-08-26T03:27:52.760Z,100494.06
2022-08-26T03:30:45.397Z,100496.03
2022-08-26T03:33:15.792Z,100499.97
2022-08-26T03:35:47.808Z,100496.63
2022-08-26T03:38:20.539Z,100490.91
2022-08-26T03:40:50.782Z,100487.69
2022-08-26T03:43:21.520Z,100491.31
2022-08-26T03:45:50.133Z,100490.63
2022-08-26T03:48:19.918Z,100486.00
2022-08-26T03:50:48.797Z,100486.69
2022-08-26T03:53:20.536Z,100480.00
2022-08-26T03:55:51.962Z,100484.63
2022-08-26T03:58:20.981Z,100484.19
2022-08-26T04:00:55.365Z,100485.03
2022-08-26T04:03:39.096Z,100483.47
2022-08-26T04:06:08.361Z,100477.88
2022-08-26T04:08:39.093Z,100482.06
2022-08-26T04:11:09.228Z,100472.00
2022-08-26T04:13:38.986Z,100483.16
2022-08-26T04:16:08.705Z,100488.19
2022-08-26T04:18:46.585Z,100482.59
2022-08-26T04:21:16.144Z,100483.97
2022-08-26T04:23:47.759Z,100486.47
2022-08-26T04:26:20.334Z,100493.16
2022-08-26T04:28:49.601Z,100488.25
2022-08-26T04:31:19.924Z,100493.00
2022-08-26T04:33:51.529Z,100489.81
2022-08-26T04:36:20.466Z,100483.91
2022-08-26T04:38:50.718Z,100483.75
2022-08-26T04:41:21.646Z,100489.31
2022-08-26T04:43:50.899Z,100483.72
2022-08-26T04:46:24.448Z,100478.19
2022-08-26T04:48:54.796Z,100481.56
2022-08-26T04:51:28.113Z,100489.94
2022-08-26T04:53:58.340Z,100484.31
2022-08-26T04:56:31.454Z,100480.22
2022-08-26T04:59:01.140Z,100488.13
2022-08-26T05:01:31.717Z,100479.94
2022-08-26T05:04:01.722Z,100484.06
2022-08-26T05:06:35.561Z,100492.16
2022-08-26T05:09:06.168Z,100491.09
2022-08-26T05:11:37.353Z,100491.88
2022-08-26T05:14:06.919Z,100494.16
2022-08-26T05:16:36.330Z,100496.25
2022-08-26T05:19:06.962Z,100492.38
2022-08-26T05:21:38.757Z,100493.66
2022-08-26T05:24:08.025Z,100503.72
2022-08-26T05:26:37.913Z,100496.69
2022-08-26T05:29:07.590Z,100498.47
2022-08-26T05:31:36.875Z,100499.88
2022-08-26T05:34:05.978Z,100509.16
2022-08-26T05:36:38.026Z,100500.69
2022-08-26T05:39:08.078Z,100491.75
2022-08-26T05:41:44.849Z,100502.63
2022-08-26T05:44:18.748Z,100504.31
2022-08-26T05:46:47.684Z,100507.84
2022-08-26T05:49:17.016Z,100505.47
2022-08-26T05:51:47.967Z,100514.13
2022-08-26T05:54:22.211Z,100517.34
2022-08-26T05:56:53.192Z,100515.97
2022-08-26T05:59:24.446Z,100512.56
2022-08-26T06:01:54.970Z,100509.59
2022-08-26T06:04:27.661Z,100508.88
2022-08-26T06:06:59.865Z,100500.84
2022-08-26T06:09:28.932Z,100508.22
2022-08-26T06:12:01.941Z,100510.31
2022-08-26T06:14:30.869Z,100508.94
2022-08-26T06:16:59.896Z,100502.50
2022-08-26T06:19:32.906Z,100506.88
2022-08-26T06:22:23.853Z,100506.00
2022-08-26T06:25:10.641Z,100502.78
2022-08-26T06:27:40.840Z,100512.31
2022-08-26T06:30:11.168Z,100513.38
2022-08-26T06:32:41.254Z,100517.28
2022-08-26T06:35:12.131Z,100520.69
2022-08-26T06:37:42.839Z,100507.25
2022-08-26T06:40:12.726Z,100516.03
2022-08-26T06:42:42.706Z,100511.50
2022-08-26T06:45:12.922Z,100510.34
2022-08-26T06:47:41.896Z,100506.44
2022-08-26T06:50:11.059Z,100511.56
2022-08-26T06:52:42.934Z,100510.22
2022-08-26T06:55:11.722Z,100514.94
2022-08-26T06:57:41.971Z,100515.88
2022-08-26T07:00:12.641Z,100519.81
2022-08-26T07:02:41.325Z,100525.53
2022-08-26T07:05:16.358Z,100520.94
2022-08-26T07:07:44.924Z,100516.16
2022-08-26T07:10:13.470Z,100510.78
2022-08-26T07:12:43.710Z,100506.59
2022-08-26T07:15:16.649Z,100508.13
2022-08-26T07:17:45.737Z,100510.75
2022-08-26T07:20:14.447Z,100501.38
2022-08-26T07:22:43.823Z,100507.56
2022-08-26T07:25:13.015Z,100510.88
2022-08-26T07:27:42.969Z,100508.75
2022-08-26T07:30:14.849Z,100511.94
2022-08-26T07:32:43.755Z,100511.69
2022-08-26T07:35:12.321Z,100504.59
2022-08-26T07:37:40.889Z,100502.69
2022-08-26T07:40:11.912Z,100505.22
2022-08-26T07:42:41.094Z,100500.06
2022-08-26T07:45:11.523Z,100500.44
2022-08-26T07:47:40.397Z,100497.16
2022-08-26T07:50:10.237Z,100494.38
2022-08-26T07:52:40.281Z,100499.28
2022-08-26T07:55:11.618Z,100489.91
2022-08-26T07:57:40.236Z,100487.25
2022-08-26T08:00:16.113Z,100489.25
2022-08-26T08:02:45.677Z,100485.31
2022-08-26T08:05:19.478Z,100495.88
2022-08-26T08:07:49.331Z,100490.97
2022-08-26T08:10:26.688Z,100487.16
2022-08-26T08:12:57.636Z,100488.72
2022-08-26T08:15:33.201Z,100492.78
2022-08-26T08:18:04.897Z,100496.50
2022-08-26T08:20:35.087Z,100490.38
2022-08-26T08:23:05.810Z,100492.56
2022-08-26T08:25:36.042Z,100479.50
2022-08-26T08:28:05.410Z,100487.44
2022-08-26T08:30:41.249Z,100474.00
2022-08-26T08:33:10.325Z,100482.44
2022-08-26T08:35:42.480Z,100474.59
2022-08-26T08:38:11.853Z,100468.53
2022-08-26T08:40:42.813Z,100473.06
2022-08-26T08:43:14.629Z,100472.81
2022-08-26T08:45:51.715Z,100467.00
2022-08-26T08:48:27.749Z,100468.41
2022-08-26T08:51:07.439Z,100468.16
2022-08-26T08:53:41.677Z,100463.56
2022-08-26T08:56:24.605Z,100466.38
2022-08-26T08:59:02.317Z,100463.53
2022-08-26T09:01:54.145Z,100468.50
2022-08-26T09:04:52.386Z,100462.50
2022-08-26T09:07:27.473Z,100464.63
2022-08-26T09:10:02.101Z,100454.00
2022-08-26T09:12:35.745Z,100453.88
2022-08-26T09:15:16.648Z,100457.41
2022-08-26T09:17:59.978Z,100452.34
2022-08-26T09:20:45.656Z,100456.78
2022-08-26T09:23:15.455Z,100454.91
2022-08-26T09:25:52.466Z,100455.72
2022-08-26T09:28:26.643Z,100452.66
2022-08-26T09:31:22.031Z,100452.09
2022-08-26T09:34:17.404Z,100447.75
2022-08-26T09:36:48.614Z,100460.53
2022-08-26T09:39:34.592Z,100439.16
2022-08-26T09:42:12.827Z,100439.22
2022-08-26T09:45:10.534Z,100434.22
2022-08-26T09:47:53.594Z,100439.63
2022-08-26T09:50:30.976Z,100434.31
2022-08-26T09:53:15.855Z,100432.84
2022-08-26T09:55:47.658Z,100434.59
2022-08-26T09:58:34.732Z,100435.53
2022-08-26T10:01:10.875Z,100421.72
2022-08-26T10:03:41.675Z,100427.47
2022-08-26T10:06:26.801Z,100429.75
2022-08-26T10:08:59.973Z,100432.13
2022-08-26T10:11:40.473Z,100428.41
2022-08-26T10:14:20.182Z,100426.53
2022-08-26T10:17:01.090Z,100425.44
2022-08-26T10:19:55.805Z,100419.16
2022-08-26T10:22:39.594Z,100421.25
2022-08-26T10:25:15.542Z,100420.69
2022-08-26T10:27:55.620Z,100420.88
2022-08-26T10:30:31.966Z,100412.22
2022-08-26T10:33:07.899Z,100412.47
2022-08-26T10:35:45.622Z,100415.44
2022-08-26T10:38:21.290Z,100417.28
2022-08-26T10:41:00.735Z,100419.34
2022-08-26T10:43:36.846Z,100413.44
2022-08-26T10:46:17.173Z,100413.50
2022-08-26T10:48:56.215Z,100406.88
2022-08-26T10:51:35.651Z,100398.16
2022-08-26T10:54:15.626Z,100399.63
2022-08-26T10:56:55.641Z,100399.03
2022-08-26T10:59:44.706Z,100404.69
2022-08-26T11:02:25.138Z,100397.34
2022-08-26T11:05:00.014Z,100389.69
2022-08-26T11:07:43.315Z,100389.94
2022-08-26T11:11:04.553Z,100392.50
2022-08-26T11:14:03.032Z,100392.81
2022-08-26T11:16:42.890Z,100383.63
2022-08-26T11:20:00.909Z,100381.53
2022-08-26T11:22:38.113Z,100371.91
2022-08-26T11:25:18.279Z,100373.56
2022-08-26T11:28:06.212Z,100374.47
2022-08-26T11:30:44.200Z,100373.31
2022-08-26T11:33:59.911Z,100360.16
2022-08-26T11:37:01.456Z,100357.91
2022-08-26T11:39:53.995Z,100352.66
2022-08-26T11:42:37.002Z,100360.63
2022-08-26T11:45:23.639Z,100353.16
2022-08-26T11:47:52.532Z,100349.97
2022-08-26T11:50:27.048Z,100348.69
2022-08-26T11:53:02.339Z,100345.06
2022-08-26T11:55:34.354Z,100338.00
2022-08-26T11:58:07.691Z,100345.28
2022-08-26T12:00:55.982Z,100332.16
2022-08-26T12:03:36.254Z,100340.63
2022-08-26T12:06:15.792Z,100330.03
2022-08-26T12:08:45.998Z,100326.97
2022-08-26T12:11:24.450Z,100328.50
2022-08-26T12:14:00.442Z,100322.16
2022-08-26T12:16:32.472Z,100323.13
2022-08-26T12:19:01.742Z,100326.06
2022-08-26T12:21:34.880Z,100319.44
2022-08-26T12:24:05.667Z,100328.59
2022-08-26T12:26:38.010Z,100319.34
2022-08-26T12:29:19.805Z,100313.28
2022-08-26T12:31:49.861Z,100310.13
2022-08-26T12:34:19.402Z,100309.25
2022-08-26T12:36:54.874Z,100305.91
2022-08-26T12:39:30.380Z,100301.34
2022-08-26T12:42:01.334Z,100299.63
2022-08-26T12:44:53.686Z,100292.91
2022-08-26T12:47:43.062Z,100289.69
2022-08-26T12:50:19.472Z,100289.66
2022-08-26T12:53:00.708Z,100285.94
2022-08-26T12:55:40.638Z,100287.78
2022-08-26T12:58:28.090Z,100279.53
2022-08-26T13:00:59.443Z,100267.41
2022-08-26T13:03:43.418Z,100269.91
2022-08-26T13:06:17.780Z,100272.28
2022-08-26T13:08:51.523Z,100269.50
2022-08-26T13:11:23.679Z,100265.84
2022-08-26T13:13:56.756Z,100262.28
2022-08-26T13:16:26.745Z,100262.72
2022-08-26T13:18:59.850Z,100257.72
2022-08-26T13:21:37.835Z,100258.59
2022-08-26T13:24:11.822Z,100255.66
2022-08-26T13:26:41.652Z,100251.94
2022-08-26T13:29:11.165Z,100245.19
2022-08-26T13:31:43.812Z,100247.28
2022-08-26T13:34:19.220Z,100240.97
2022-08-26T13:36:48.747Z,100243.78
2022-08-26T13:39:19.998Z,100242.66
2022-08-26T13:41:49.388Z,100241.06
2022-08-26T13:44:18.363Z,100240.50
2022-08-26T13:46:47.371Z,100237.97
2022-08-26T13:49:16.313Z,100236.59
2022-08-26T13:51:45.189Z,100233.97
2022-08-26T13:54:14.139Z,100231.00
2022-08-26T13:56:44.241Z,100239.38
2022-08-26T13:59:12.999Z,100231.03
2022-08-26T14:01:41.929Z,100232.28
2022-08-26T14:04:10.596Z,100235.91
2022-08-26T14:06:39.234Z,100226.63
2022-08-26T14:09:08.088Z,100226.34
2022-08-26T14:11:54.241Z,100228.66
2022-08-26T14:14:25.184Z,100228.16
2022-08-26T14:16:59.719Z,100218.13
2022-08-26T14:19:31.047Z,100220.09
2022-08-26T14:22:01.492Z,100210.72
2022-08-26T14:24:31.277Z,100221.28
2022-08-26T14:26:59.906Z,100214.66
2022-08-26T14:29:29.860Z,100212.50
2022-08-26T14:32:03.563Z,100205.69
2022-08-26T14:34:32.211Z,100207.41
2022-08-26T14:37:07.695Z,100201.47
2022-08-26T14:39:37.176Z,100201.91
2022-08-26T14:42:07.089Z,100198.19
2022-08-26T14:44:37.924Z,100203.69
2022-08-26T14:47:07.636Z,100196.13
2022-08-26T14:49:36.911Z,100192.25
2022-08-26T14:52:05.739Z,100196.22
2022-08-26T14:54:34.614Z,100190.47
2022-08-26T14:57:07.144Z,100196.72
2022-08-26T14:59:40.470Z,100199.44
2022-08-26T15:02:20.333Z,100193.34
2022-08-26T15:05:01.487Z,100196.06
2022-08-26T15:07:30.119Z,100197.13
2022-08-26T15:09:59.157Z,100192.16
2022-08-26T15:12:28.226Z,100193.88
2022-08-26T15:14:58.170Z,100195.16
2022-08-26T15:17:26.942Z,100188.31
2022-08-26T15:19:55.738Z,100181.94
2022-08-26T15:22:29.767Z,100183.25
2022-08-26T15:24:59.288Z,100178.97
2022-08-26T15:27:28.277Z,100180.59
2022-08-26T15:29:58.399Z,100179.00
2022-08-26T15:32:27.193Z,100178.41
2022-08-26T15:34:55.903Z,100178.91
2022-08-26T15:37:24.719Z,100173.50
2022-08-26T15:39:53.867Z,100171.72
2022-08-26T15:42:22.501Z,100171.59
2022-08-26T15:44:52.406Z,100170.81
2022-08-26T15:47:23.834Z,100173.63
2022-08-26T15:49:52.493Z,100176.66
2022-08-26T15:52:22.328Z,100166.63
2022-08-26T15:54:51.494Z,100164.91
2022-08-26T15:57:20.237Z,100171.38
2022-08-26T15:59:49.135Z,100170.09
2022-08-26T16:02:19.044Z,100167.84
2022-08-26T16:04:49.052Z,100168.78
2022-08-26T16:07:18.009Z,100168.53
2022-08-26T16:09:49.113Z,100159.34
2022-08-26T16:12:22.813Z,100162.06
2022-08-26T16:14:53.991Z,100156.06
2022-08-26T16:17:22.621Z,100163.84
2022-08-26T16:19:52.855Z,100161.81
2022-08-26T16:22:21.459Z,100157.69
2022-08-26T16:24:50.812Z,100164.06
2022-08-26T16:27:19.613Z,100156.13
2022-08-26T16:29:52.045Z,100155.50
2022-08-26T16:32:20.878Z,100154.81
2022-08-26T16:34:56.527Z,100155.00
2022-08-26T16:37:27.284Z,100153.13
2022-08-26T16:39:55.994Z,100158.03
2022-08-26T16:42:24.670Z,100153.91
2022-08-26T16:44:53.462Z,100154.38
2022-08-26T16:47:23.229Z,100156.81
2022-08-26T16:49:52.197Z,100152.66
2022-08-26T16:52:21.579Z,100161.34
2022-08-26T16:54:54.982Z,100162.59
2022-08-26T16:57:23.899Z,100166.28
2022-08-26T16:59:52.588Z,100166.63
2022-08-26T17:02:21.227Z,100162.34
2022-08-26T17:04:50.243Z,100167.00
2022-08-26T17:07:19.143Z,100167.75
2022-08-26T17:09:47.965Z,100163.94
2022-08-26T17:12:17.944Z,100162.13
2022-08-26T17:14:46.646Z,100166.78
2022-08-26T17:17:15.911Z,100172.91
2022-08-26T17:19:47.080Z,100173.22
2022-08-26T17:22:17.314Z,100172.03
2022-08-26T17:24:46.046Z,100169.88
2022-08-26T17:27:14.762Z,100169.34
2022-08-26T17:29:45.013Z,100169.41
2022-08-26T17:32:13.704Z,100166.81
2022-08-26T17:34:42.476Z,100175.38
2022-08-26T17:37:11.289Z,100169.00
2022-08-26T17:39:43.921Z,100181.69
2022-08-26T17:42:13.433Z,100176.34
2022-08-26T17:44:42.268Z,100180.75
2022-08-26T17:47:13.257Z,100176.22
2022-08-26T17:49:42.193Z,100172.09
2022-08-26T17:52:11.666Z,100171.13
2022-08-26T17:54:40.599Z,100179.19
2022-08-26T17:57:10.702Z,100173.63
2022-08-26T17:59:40.957Z,100178.22
2022-08-26T18:02:09.825Z,100176.97
2022-08-26T18:04:39.799Z,100180.09
2022-08-26T18:07:08.635Z,100176.13
2022-08-26T18:09:37.429Z,100177.34
2022-08-26T18:12:06.879Z,100174.03
2022-08-26T18:14:35.490Z,100175.69
2022-08-26T18:17:04.474Z,100179.41
2022-08-26T18:19:33.259Z,100179.38
2022-08-26T18:22:03.243Z,100185.13
2022-08-26T18:24:32.675Z,100178.31
2022-08-26T18:27:01.359Z,100174.16
2022-08-26T18:29:29.979Z,100184.66
2022-08-26T18:31:58.806Z,100184.19
2022-08-26T18:34:31.740Z,100192.44
2022-08-26T18:37:02.250Z,100190.31
2022-08-26T18:39:31.023Z,100183.69
2022-08-26T18:41:59.625Z,100186.75
2022-08-26T18:44:28.419Z,100191.91
2022-08-26T18:46:56.951Z,100196.66
2022-08-26T18:49:25.603Z,100188.16
2022-08-26T18:51:54.640Z,100190.84
2022-08-26T18:54:24.550Z,100186.06
2022-08-26T18:56:53.163Z,100184.81
2022-08-26T18:59:30.239Z,100192.22
2022-08-26T19:01:59.633Z,100202.72
2022-08-26T19:04:28.680Z,100187.38
2022-08-26T19:06:57.332Z,100197.25
2022-08-26T19:09:27.378Z,100194.50
2022-08-26T19:14:31.162Z,100195.81
2022-08-26T19:17:01.446Z,100196.59
2022-08-26T19:19:30.550Z,100186.00
2022-08-26T19:21:59.120Z,100200.84
2022-08-26T19:24:29.474Z,100192.53
2022-08-26T19:27:01.377Z,100197.66
2022-08-26T19:29:33.931Z,100196.09
2022-08-26T19:32:04.005Z,100197.88
2022-08-26T19:34:32.874Z,100186.88
2022-08-26T19:37:01.510Z,100188.28
2022-08-26T19:39:31.464Z,100186.81
2022-08-26T19:42:00.588Z,100190.91
2022-08-26T19:44:46.786Z,100192.47
2022-08-26T19:47:15.637Z,100194.44
2022-08-26T19:49:44.813Z,100193.56
2022-08-26T19:52:13.959Z,100194.13
2022-08-26T19:54:44.476Z,100193.03
2022-08-26T19:57:13.324Z,100191.09
2022-08-26T19:59:42.578Z,100199.91
2022-08-26T20:02:12.962Z,100196.31
2022-08-26T20:04:41.866Z,100199.69
2022-08-26T20:07:14.188Z,100196.75
2022-08-26T20:09:49.768Z,100197.47
2022-08-26T20:12:18.784Z,100200.25
2022-08-26T20:14:47.943Z,100195.28
2022-08-26T20:17:17.167Z,100197.69
2022-08-26T20:20:03.480Z,100199.69
2022-08-26T20:22:32.414Z,100199.22
2022-08-26T20:25:02.531Z,100193.88
2022-08-26T20:27:37.873Z,100201.44
2022-08-26T20:30:11.111Z,100193.31
2022-08-26T20:32:40.589Z,100198.56
2022-08-26T20:35:13.589Z,100193.97
2022-08-26T20:37:42.799Z,100199.03
2022-08-26T20:40:15.485Z,100197.19
2022-08-26T20:42:44.251Z,100197.72
2022-08-26T20:45:13.301Z,100204.09
2022-08-26T20:47:42.834Z,100204.47
2022-08-26T20:50:11.617Z,100202.16
2022-08-26T20:52:40.461Z,100206.84
2022-08-26T20:55:10.468Z,100199.31
2022-08-26T20:57:43.167Z,100209.03
2022-08-26T21:00:16.166Z,100205.25
2022-08-26T21:02:46.326Z,100213.28
2022-08-26T21:05:15.241Z,100214.44
2022-08-26T21:07:44.084Z,100215.44
2022-08-26T21:10:13.837Z,100219.34
2022-08-26T21:12:44.033Z,100213.69
2022-08-26T21:15:12.972Z,100222.88
2022-08-26T21:17:41.605Z,100218.41
2022-08-26T21:20:11.160Z,100213.75
2022-08-26T21:22:39.969Z,100217.81
2022-08-26T21:25:10.247Z,100218.16
2022-08-26T21:27:39.855Z,100212.97
2022-08-26T21:30:12.409Z,100212.81
2022-08-26T21:32:41.245Z,100218.03
2022-08-26T21:35:11.282Z,100204.38
2022-08-26T21:37:39.892Z,100211.00
2022-08-26T21:40:10.502Z,100207.22
2022-08-26T21:42:39.263Z,100213.38
2022-08-26T21:45:10.803Z,100203.84
2022-08-26T21:47:40.678Z,100200.31
2022-08-26T21:50:10.514Z,100197.00
2022-08-26T21:52:39.527Z,100202.81
2022-08-26T21:55:11.762Z,100200.13
2022-08-26T21:57:40.933Z,100204.31
2022-08-26T22:00:16.309Z,100197.75
2022-08-26T22:02:45.060Z,100200.13
2022-08-26T22:05:14.097Z,100197.47
2022-08-26T22:07:42.689Z,100206.97
2022-08-26T22:10:11.534Z,100195.47
2022-08-26T22:12:40.366Z,100203.50
2022-08-26T22:15:12.206Z,100197.09
2022-08-26T22:17:41.040Z,100200.81
2022-08-26T22:20:11.532Z,100202.47
2022-08-26T22:22:45.820Z,100204.31
2022-08-26T22:25:14.839Z,100211.59
2022-08-26T22:27:43.439Z,100211.06
2022-08-26T22:30:14.775Z,100200.72
2022-08-26T22:32:44.022Z,100205.53
2022-08-26T22:35:29.371Z,100212.41
2022-08-26T22:37:59.195Z,100207.03
2022-08-26T22:40:28.442Z,100213.41
2022-08-26T22:42:58.812Z,100211.81
2022-08-26T22:45:32.892Z,100208.47
2022-08-26T22:48:04.689Z,100204.84
2022-08-26T22:50:33.607Z,100204.53
2022-08-26T22:53:02.771Z,100195.91
2022-08-26T22:55:31.570Z,100197.78
2022-08-26T22:58:01.192Z,100201.63
2022-08-26T23:00:32.391Z,100203.63
2022-08-26T23:03:01.992Z,100201.78
2022-08-26T23:05:31.140Z,100204.47
2022-08-26T23:08:00.268Z,100198.81
2022-08-26T23:10:29.872Z,100186.34
2022-08-26T23:12:58.574Z,100183.19
2022-08-26T23:15:27.652Z,100198.03
2022-08-26T23:18:03.132Z,100178.84
2022-08-26T23:20:32.254Z,100192.88
2022-08-26T23:23:01.826Z,100192.69
2022-08-26T23:25:31.146Z,100200.06
2022-08-26T23:28:01.864Z,100187.69
2022-08-26T23:30:34.504Z,100190.00
2022-08-26T23:33:04.670Z,100184.84
2022-08-26T23:35:32.650Z,100179.00
2022-08-26T23:38:01.841Z,100175.84
2022-08-26T23:40:34.528Z,100175.38
2022-08-26T23:43:08.120Z,100173.03
2022-08-26T23:45:37.306Z,100169.72
2022-08-26T23:48:08.058Z,100172.38
2022-08-26T23:51:05.768Z,100172.09
2022-08-26T23:53:34.532Z,100168.28
2022-08-26T23:56:03.370Z,100165.13
2022-08-26T23:58:31.964Z,100165.66
